Time;durP1;ratioP1;P1;durP2;ratioP2;P2;SDS_P1;SDS_P2;PMS_P1;PMS_P2;Temp;Humidity;BMP_temperature;BMP_pressure;BME280_temperature;BME280_humidity;BME280_pressure;Samples;Min_cycle;Max_cycle;Signal;HPM_P1;HPM_P2
2024/05/02 00:01:56;;;;;;;6.60;3.30;;;12.10;99.90;;;;;;5373790;26;20077;-70
2024/05/02 00:04:21;;;;;;;5.95;3.60;;;12.10;99.90;;;;;;5380399;26;20008;-73
2024/05/02 00:06:47;;;;;;;7.63;4.05;;;12.10;99.90;;;;;;5380757;26;20015;-70
2024/05/02 00:09:13;;;;;;;6.88;4.00;;;12.10;99.90;;;;;;5380772;26;20012;-71
2024/05/02 00:11:38;;;;;;;6.80;3.85;;;12.00;99.90;;;;;;5381288;26;19993;-72
2024/05/02 00:14:04;;;;;;;6.35;3.80;;;12.00;99.90;;;;;;5380341;26;20008;-72
2024/05/02 00:16:29;;;;;;;6.15;3.30;;;12.00;99.90;;;;;;5378349;26;20024;-71
2024/05/02 00:18:55;;;;;;;6.45;3.60;;;12.00;99.90;;;;;;5345484;26;20016;-68
2024/05/02 00:21:20;;;;;;;6.65;3.38;;;11.90;99.90;;;;;;5350237;26;20005;-72
2024/05/02 00:23:46;;;;;;;6.70;3.42;;;11.90;99.90;;;;;;5380081;26;20073;-70
2024/05/02 00:26:12;;;;;;;4.93;2.88;;;11.80;99.90;;;;;;5360450;26;19997;-70
2024/05/02 00:28:37;;;;;;;8.70;3.45;;;11.70;99.90;;;;;;5344904;26;20369;-68
2024/05/02 00:31:03;;;;;;;8.52;3.38;;;11.70;99.90;;;;;;5314695;26;19997;-69
2024/05/02 00:33:29;;;;;;;5.97;3.67;;;11.80;99.90;;;;;;5369006;26;20008;-72
2024/05/02 00:35:54;;;;;;;9.07;3.60;;;11.70;99.90;;;;;;5380085;26;20391;-71
2024/05/02 00:38:20;;;;;;;5.03;2.88;;;11.60;99.90;;;;;;5380390;26;20000;-71
2024/05/02 00:40:49;;;;;;;5.75;3.30;;;11.50;99.90;;;;;;5372843;26;20011;-71
2024/05/02 00:43:15;;;;;;;8.43;3.05;;;11.40;99.90;;;;;;5345692;26;19997;-70
2024/05/02 00:45:41;;;;;;;6.70;3.55;;;11.30;99.90;;;;;;5358424;26;20020;-70
2024/05/02 00:48:07;;;;;;;10.38;3.80;;;11.20;99.90;;;;;;5380453;26;19996;-73
2024/05/02 00:50:33;;;;;;;4.75;3.17;;;11.10;99.90;;;;;;5375332;26;20036;-70
2024/05/02 00:53:02;;;;;;;7.07;4.25;;;11.00;99.90;;;;;;5345016;26;20018;-71
2024/05/02 00:55:32;;;;;;;8.82;3.78;;;11.00;99.90;;;;;;5344305;26;20019;-69
2024/05/02 00:57:58;;;;;;;6.65;3.90;;;10.90;99.90;;;;;;5377270;26;20021;-71
2024/05/02 01:00:23;;;;;;;5.97;3.50;;;10.90;99.90;;;;;;5360937;26;20012;-70
2024/05/02 01:02:49;;;;;;;6.15;3.70;;;10.80;99.90;;;;;;5344971;26;20043;-72
2024/05/02 01:05:14;;;;;;;7.15;4.00;;;10.70;99.90;;;;;;5343925;26;20012;-72
2024/05/02 01:07:45;;;;;;;7.03;3.80;;;10.70;99.90;;;;;;5345096;26;20001;-68
2024/05/02 01:10:11;;;;;;;5.43;3.40;;;10.70;99.90;;;;;;5348178;26;20029;-71
2024/05/02 01:12:41;;;;;;;6.35;3.38;;;10.60;99.90;;;;;;5348012;26;19997;-73
2024/05/02 01:15:07;;;;;;;13.18;3.92;;;10.60;99.90;;;;;;5356194;26;20000;-70
2024/05/02 01:17:32;;;;;;;8.50;4.00;;;10.50;99.90;;;;;;5365633;26;20005;-69
2024/05/02 01:19:58;;;;;;;9.30;3.88;;;10.50;99.90;;;;;;5348444;26;20460;-69
2024/05/02 01:22:30;;;;;;;4.97;3.15;;;10.40;99.90;;;;;;5348031;26;20020;-71
2024/05/02 01:24:56;;;;;;;6.55;4.35;;;10.30;99.90;;;;;;5382555;26;20000;-70
2024/05/02 01:27:21;;;;;;;9.80;4.28;;;10.30;99.90;;;;;;5383028;26;20015;-70
2024/05/02 01:29:47;;;;;;;5.22;3.92;;;10.30;99.90;;;;;;5383170;26;20000;-72
2024/05/02 01:32:13;;;;;;;8.07;3.85;;;10.30;99.90;;;;;;5356779;26;20005;-71
2024/05/02 01:34:38;;;;;;;7.70;3.88;;;10.20;99.90;;;;;;5361100;26;20028;-72
2024/05/02 01:37:04;;;;;;;7.32;4.70;;;10.30;99.90;;;;;;5383052;26;20008;-70
2024/05/02 01:39:29;;;;;;;7.22;3.88;;;10.20;99.90;;;;;;5382909;26;19996;-72
2024/05/02 01:41:55;;;;;;;6.63;3.85;;;10.20;99.90;;;;;;5382914;26;20000;-70
2024/05/02 01:44:21;;;;;;;5.75;3.60;;;10.20;99.90;;;;;;5382090;26;20000;-72
2024/05/02 01:46:46;;;;;;;6.85;4.03;;;10.20;99.90;;;;;;5382718;26;20001;-70
2024/05/02 01:49:13;;;;;;;6.32;3.63;;;10.30;99.90;;;;;;5383018;26;20000;-70
2024/05/02 01:51:39;;;;;;;6.45;4.13;;;10.20;99.90;;;;;;5382609;26;20475;-71
2024/05/02 01:54:04;;;;;;;6.05;4.28;;;10.20;99.90;;;;;;5382711;26;20000;-72
2024/05/02 01:56:30;;;;;;;4.65;3.30;;;10.10;99.90;;;;;;5382181;26;20386;-71
2024/05/02 01:58:56;;;;;;;7.47;3.85;;;10.00;99.90;;;;;;5355982;26;20008;-71
2024/05/02 02:01:21;;;;;;;6.18;3.78;;;9.90;99.90;;;;;;5347629;26;19997;-73
2024/05/02 02:03:47;;;;;;;5.75;3.72;;;9.80;99.90;;;;;;5347349;26;20020;-71
2024/05/02 02:06:13;;;;;;;7.10;3.88;;;9.80;99.90;;;;;;5347281;26;20013;-71
2024/05/02 02:08:38;;;;;;;7.78;3.85;;;9.80;99.90;;;;;;5346929;26;20008;-71
2024/05/02 02:11:04;;;;;;;10.27;4.47;;;9.70;99.90;;;;;;5347802;26;19998;-72
2024/05/02 02:13:29;;;;;;;6.57;4.10;;;9.70;99.90;;;;;;5376675;26;20000;-69
2024/05/02 02:15:55;;;;;;;6.47;4.03;;;9.60;99.90;;;;;;5376724;26;20004;-71
2024/05/02 02:18:20;;;;;;;8.77;4.03;;;9.60;99.90;;;;;;5346950;26;20013;-71
2024/05/02 02:20:46;;;;;;;7.38;4.07;;;9.50;99.90;;;;;;5371651;26;20000;-70
2024/05/02 02:23:12;;;;;;;7.32;4.00;;;9.50;99.90;;;;;;5386235;26;19992;-72
2024/05/02 02:25:37;;;;;;;7.75;4.10;;;9.50;99.90;;;;;;5384986;26;20004;-68
2024/05/02 02:28:03;;;;;;;8.73;4.40;;;9.60;99.90;;;;;;5350397;26;20010;-69
2024/05/02 02:30:29;;;;;;;6.65;3.83;;;9.60;99.90;;;;;;5347048;26;20001;-70
2024/05/02 02:32:54;;;;;;;7.93;4.82;;;9.50;99.90;;;;;;5346746;26;20378;-69
2024/05/02 02:35:20;;;;;;;9.70;4.57;;;9.60;99.90;;;;;;5347373;26;20009;-72
2024/05/02 02:37:46;;;;;;;9.43;4.30;;;9.60;99.90;;;;;;5347391;26;20074;-71
2024/05/02 02:40:11;;;;;;;6.93;4.18;;;9.60;99.90;;;;;;5347008;26;20483;-73
2024/05/02 02:42:38;;;;;;;8.77;4.45;;;9.50;99.90;;;;;;5346921;26;20008;-69
2024/05/02 02:45:04;;;;;;;7.07;4.15;;;9.40;99.90;;;;;;5359326;26;20004;-70
2024/05/02 02:47:30;;;;;;;8.50;4.00;;;9.30;99.90;;;;;;5382139;26;19996;-71
2024/05/02 02:49:55;;;;;;;10.45;4.95;;;9.20;99.90;;;;;;5381557;26;20000;-68
2024/05/02 02:52:21;;;;;;;7.40;4.22;;;9.20;99.90;;;;;;5382401;26;20072;-70
2024/05/02 02:54:47;;;;;;;8.68;4.25;;;9.10;99.90;;;;;;5362051;26;20005;-70
2024/05/02 02:57:13;;;;;;;7.45;4.25;;;9.10;99.90;;;;;;5346977;26;20330;-71
2024/05/02 02:59:39;;;;;;;16.52;9.90;;;9.10;99.90;;;;;;5372308;26;20000;-71
2024/05/02 03:02:05;;;;;;;26.02;14.05;;;9.20;99.90;;;;;;5381897;26;20448;-68
2024/05/02 03:04:30;;;;;;;26.33;16.10;;;9.20;99.90;;;;;;5381282;26;20032;-72
2024/05/02 03:06:56;;;;;;;18.58;9.73;;;9.20;99.90;;;;;;5381542;26;20015;-72
2024/05/02 03:09:21;;;;;;;8.60;4.80;;;9.20;99.90;;;;;;5381269;26;20028;-69
2024/05/02 03:11:47;;;;;;;9.50;4.80;;;9.30;99.90;;;;;;5381702;26;20001;-71
2024/05/02 03:14:13;;;;;;;6.05;4.30;;;9.30;99.90;;;;;;5380524;26;20019;-67
2024/05/02 03:16:38;;;;;;;7.30;4.22;;;9.30;99.90;;;;;;5381208;26;20011;-69
2024/05/02 03:19:04;;;;;;;11.93;5.05;;;9.20;99.90;;;;;;5381461;26;20042;-68
2024/05/02 03:21:29;;;;;;;8.20;5.03;;;9.20;99.90;;;;;;5379942;26;20015;-68
2024/05/02 03:23:55;;;;;;;8.02;4.93;;;9.30;99.90;;;;;;5315801;26;20438;-68
2024/05/02 03:26:21;;;;;;;9.15;5.45;;;9.30;99.90;;;;;;5346635;26;20009;-70
2024/05/02 03:28:46;;;;;;;10.35;5.57;;;9.40;99.90;;;;;;5349301;26;20029;-72
2024/05/02 03:31:16;;;;;;;8.52;4.82;;;9.50;99.90;;;;;;5379804;26;20081;-69
2024/05/02 03:33:42;;;;;;;9.40;5.20;;;9.50;99.90;;;;;;5380766;26;20000;-71
2024/05/02 03:36:08;;;;;;;12.27;6.22;;;9.50;99.90;;;;;;5380895;26;20521;-70
2024/05/02 03:38:34;;;;;;;8.70;5.55;;;9.40;99.90;;;;;;5380723;26;20012;-69
2024/05/02 03:40:59;;;;;;;8.35;5.57;;;9.40;99.90;;;;;;5381159;26;20004;-71
2024/05/02 03:43:25;;;;;;;9.88;5.47;;;9.40;99.90;;;;;;5380786;26;20001;-70
2024/05/02 03:45:51;;;;;;;9.43;5.53;;;9.40;99.90;;;;;;5380755;26;20432;-70
2024/05/02 03:48:18;;;;;;;14.50;5.85;;;9.40;99.90;;;;;;5380521;26;20015;-68
2024/05/02 03:50:43;;;;;;;10.25;5.97;;;9.30;99.90;;;;;;5381269;26;19996;-71
2024/05/02 03:53:09;;;;;;;10.77;5.57;;;9.30;99.90;;;;;;5380912;26;20368;-71
2024/05/02 03:55:34;;;;;;;10.98;5.75;;;9.30;99.90;;;;;;5380155;26;20336;-70
2024/05/02 03:58:02;;;;;;;12.13;5.68;;;9.30;99.90;;;;;;5380899;26;20448;-70
2024/05/02 04:00:28;;;;;;;8.27;5.50;;;9.30;99.90;;;;;;5380644;26;20036;-69
2024/05/02 04:02:53;;;;;;;8.77;5.88;;;9.30;99.90;;;;;;5377288;26;20073;-71
2024/05/02 04:05:19;;;;;;;11.80;6.30;;;9.30;99.90;;;;;;5345606;26;20005;-68
2024/05/02 04:07:45;;;;;;;9.93;5.70;;;9.30;99.90;;;;;;5345314;26;20352;-71
2024/05/02 04:10:11;;;;;;;12.68;6.88;;;9.30;99.90;;;;;;5361225;26;20064;-68
2024/05/02 04:12:36;;;;;;;12.15;7.43;;;9.40;99.90;;;;;;5379815;26;20456;-72
2024/05/02 04:15:02;;;;;;;16.55;8.43;;;9.50;99.90;;;;;;5379935;26;20289;-72
2024/05/02 04:17:28;;;;;;;11.30;7.35;;;9.60;99.90;;;;;;5379467;26;20484;-71
2024/05/02 04:19:53;;;;;;;14.90;8.57;;;9.70;99.90;;;;;;5379761;26;19996;-71
2024/05/02 04:22:19;;;;;;;30.45;14.18;;;9.90;99.90;;;;;;5380480;26;20007;-69
2024/05/02 04:24:45;;;;;;;14.07;8.32;;;10.00;99.90;;;;;;5366312;26;20008;-70
2024/05/02 04:27:12;;;;;;;17.40;9.38;;;10.00;99.90;;;;;;5344716;26;20103;-71
2024/05/02 04:29:38;;;;;;;16.50;9.25;;;10.10;99.90;;;;;;5376204;26;20387;-70
2024/05/02 04:32:04;;;;;;;14.60;7.90;;;10.20;99.90;;;;;;5378823;26;20138;-68
2024/05/02 04:34:29;;;;;;;11.27;6.90;;;10.30;99.90;;;;;;5378953;26;20000;-70
2024/05/02 04:36:55;;;;;;;12.93;6.90;;;10.40;99.90;;;;;;5379665;26;20019;-72
2024/05/02 04:39:20;;;;;;;10.82;5.78;;;10.50;99.90;;;;;;5365530;26;20009;-69
2024/05/02 04:41:46;;;;;;;11.63;5.95;;;10.70;99.90;;;;;;5344691;26;20004;-69
2024/05/02 04:44:12;;;;;;;7.50;5.20;;;10.90;99.90;;;;;;5346465;26;19993;-74
2024/05/02 04:46:38;;;;;;;7.85;5.57;;;11.00;99.90;;;;;;5348096;26;20076;-71
2024/05/02 04:49:03;;;;;;;8.75;5.53;;;11.00;99.90;;;;;;5347765;26;19997;-71
2024/05/02 04:51:29;;;;;;;9.98;5.45;;;11.00;99.90;;;;;;5361872;26;20005;-70
2024/05/02 04:53:55;;;;;;;9.70;5.50;;;11.20;99.90;;;;;;5382902;26;20000;-71
2024/05/02 04:56:20;;;;;;;9.48;5.72;;;11.20;99.90;;;;;;5383191;26;20036;-72
2024/05/02 04:58:46;;;;;;;18.50;7.70;;;11.40;99.90;;;;;;5383009;26;20073;-68
2024/05/02 05:01:11;;;;;;;12.50;6.47;;;11.50;99.90;;;;;;5363530;26;20004;-69
2024/05/02 05:03:37;;;;;;;12.50;7.57;;;11.70;99.90;;;;;;5367280;26;20000;-71
2024/05/02 05:06:04;;;;;;;12.00;6.43;;;11.90;99.90;;;;;;5382784;26;20004;-70
2024/05/02 05:08:30;;;;;;;10.45;6.82;;;12.00;99.90;;;;;;5382756;26;20066;-70
2024/05/02 05:10:58;;;;;;;9.65;5.82;;;12.10;99.90;;;;;;5382315;26;20318;-72
2024/05/02 05:13:24;;;;;;;9.45;5.57;;;12.30;99.90;;;;;;5381862;26;20012;-72
2024/05/02 05:15:50;;;;;;;12.93;5.35;;;12.50;99.90;;;;;;5382741;26;20001;-70
2024/05/02 05:18:15;;;;;;;10.32;5.88;;;12.60;99.90;;;;;;5382892;26;20104;-71
2024/05/02 05:20:41;;;;;;;12.30;5.07;;;12.80;99.90;;;;;;5382413;26;20015;-72
2024/05/02 05:23:11;;;;;;;8.73;5.45;;;13.00;99.90;;;;;;5382454;26;20011;-71
2024/05/02 05:25:36;;;;;;;10.02;6.28;;;13.20;99.90;;;;;;5382141;26;20314;-72
2024/05/02 05:28:02;;;;;;;9.65;5.55;;;13.30;99.90;;;;;;5382375;26;20011;-72
2024/05/02 05:30:28;;;;;;;12.07;6.38;;;13.30;99.90;;;;;;5381438;26;19997;-70
2024/05/02 05:32:54;;;;;;;12.85;5.95;;;13.40;99.90;;;;;;5370229;26;20001;-72
2024/05/02 05:35:19;;;;;;;8.60;5.57;;;13.60;99.90;;;;;;5347670;26;20004;-71
2024/05/02 05:37:45;;;;;;;13.18;5.55;;;13.60;99.90;;;;;;5382510;26;20011;-71
2024/05/02 05:40:11;;;;;;;10.27;5.53;;;13.70;99.90;;;;;;5381997;26;20004;-72
2024/05/02 05:42:36;;;;;;;8.35;5.53;;;13.70;99.90;;;;;;5376275;26;20465;-70
2024/05/02 05:45:02;;;;;;;8.48;5.82;;;13.70;99.90;;;;;;5346759;26;20005;-70
2024/05/02 05:47:28;;;;;;;9.32;5.20;;;13.90;99.90;;;;;;5345779;26;19997;-71
2024/05/02 05:49:54;;;;;;;11.13;5.57;;;13.90;99.90;;;;;;5341504;26;20349;-71
2024/05/02 05:52:19;;;;;;;8.77;5.78;;;14.10;99.90;;;;;;5361220;26;20004;-72
2024/05/02 05:54:45;;;;;;;7.43;4.95;;;14.20;99.90;;;;;;5354337;26;20381;-71
2024/05/02 05:57:10;;;;;;;8.80;5.13;;;14.30;99.90;;;;;;5382033;26;20007;-69
2024/05/02 05:59:36;;;;;;;9.48;5.72;;;14.40;99.90;;;;;;5346526;26;20000;-70
2024/05/02 06:02:02;;;;;;;7.85;5.68;;;14.40;99.90;;;;;;5345738;26;20000;-73
2024/05/02 06:04:28;;;;;;;8.75;4.80;;;14.60;99.90;;;;;;5346806;26;19997;-70
2024/05/02 06:06:53;;;;;;;8.48;4.85;;;14.80;99.90;;;;;;5347311;26;20096;-73
2024/05/02 06:09:19;;;;;;;7.93;5.30;;;15.20;99.90;;;;;;5365743;26;20005;-69
2024/05/02 06:11:45;;;;;;;8.90;5.25;;;15.50;99.90;;;;;;5365709;26;20081;-71
2024/05/02 06:14:10;;;;;;;7.78;4.82;;;15.80;99.90;;;;;;5368579;26;20448;-69
2024/05/02 06:16:36;;;;;;;9.90;5.10;;;16.30;99.90;;;;;;5349123;26;20000;-73
2024/05/02 06:19:02;;;;;;;8.70;5.03;;;16.80;99.90;;;;;;5346661;26;20005;-74
2024/05/02 06:21:27;;;;;;;8.32;5.07;;;17.30;99.90;;;;;;5347014;26;20009;-69
2024/05/02 06:23:53;;;;;;;7.78;5.20;;;17.50;99.90;;;;;;5335453;26;20326;-69
2024/05/02 06:26:19;;;;;;;10.70;5.45;;;17.70;99.90;;;;;;5346587;26;20135;-72
2024/05/02 06:28:45;;;;;;;9.13;5.03;;;17.90;99.90;;;;;;5346457;26;20033;-73
2024/05/02 06:31:11;;;;;;;10.85;4.82;;;17.60;99.90;;;;;;5348154;26;20012;-71
2024/05/02 06:33:36;;;;;;;11.85;4.32;;;17.70;99.90;;;;;;5363985;26;20032;-73
2024/05/02 06:36:02;;;;;;;7.63;4.45;;;17.60;99.90;;;;;;5375461;26;20040;-73
2024/05/02 06:38:30;;;;;;;10.35;4.75;;;17.80;99.90;;;;;;5326207;26;20075;-73
2024/05/02 06:40:56;;;;;;;9.20;4.45;;;18.20;99.90;;;;;;5346809;26;20001;-71
2024/05/02 06:43:22;;;;;;;9.20;4.28;;;19.40;99.90;;;;;;5346376;26;20028;-70
2024/05/02 06:45:48;;;;;;;15.90;6.47;;;21.20;99.90;;;;;;5359639;26;20438;-72
2024/05/02 06:48:13;;;;;;;9.57;5.03;;;23.20;95.00;;;;;;5376191;26;20001;-72
2024/05/02 06:50:39;;;;;;;10.55;4.20;;;24.90;90.50;;;;;;5364238;26;20001;-74
2024/05/02 06:53:06;;;;;;;9.57;4.60;;;26.40;81.80;;;;;;5351223;26;20396;-73
2024/05/02 06:55:32;;;;;;;8.02;4.55;;;27.20;74.30;;;;;;5380092;26;20000;-71
2024/05/02 06:57:57;;;;;;;9.65;4.70;;;27.10;71.10;;;;;;5381349;26;20018;-71
2024/05/02 07:00:23;;;;;;;9.07;4.20;;;27.50;70.60;;;;;;5381452;26;20007;-74
2024/05/02 07:02:49;;;;;;;9.30;4.53;;;28.20;68.30;;;;;;5381074;26;20001;-73
2024/05/02 07:05:14;;;;;;;10.23;4.25;;;28.20;67.90;;;;;;5380564;26;20000;-71
2024/05/02 07:07:40;;;;;;;8.65;3.85;;;29.10;66.00;;;;;;5379838;26;20444;-72
2024/05/02 07:10:06;;;;;;;11.25;4.38;;;31.10;61.90;;;;;;5381231;26;20078;-73
2024/05/02 07:12:31;;;;;;;10.40;4.35;;;32.30;58.70;;;;;;5381038;26;20118;-70
2024/05/02 07:14:57;;;;;;;11.23;4.80;;;32.10;57.80;;;;;;5359491;26;20009;-73
2024/05/02 07:17:23;;;;;;;9.98;3.90;;;32.10;57.60;;;;;;5363858;26;20004;-71
2024/05/02 07:19:49;;;;;;;8.68;3.70;;;31.50;58.10;;;;;;5380808;26;20004;-71
2024/05/02 07:22:15;;;;;;;6.90;3.25;;;31.40;58.80;;;;;;5380645;26;19996;-71
2024/05/02 07:24:40;;;;;;;6.88;3.20;;;32.30;57.00;;;;;;5380640;26;20015;-71
2024/05/02 07:27:06;;;;;;;10.52;4.65;;;31.90;57.40;;;;;;5379796;26;20439;-70
2024/05/02 07:29:33;;;;;;;12.23;3.80;;;31.20;58.60;;;;;;5380642;26;20014;-69
2024/05/02 07:31:58;;;;;;;10.15;4.30;;;30.00;59.40;;;;;;5380478;26;20068;-69
2024/05/02 07:34:24;;;;;;;8.68;4.22;;;30.00;60.60;;;;;;5369873;26;20012;-69
2024/05/02 07:36:50;;;;;;;11.88;4.50;;;30.50;60.00;;;;;;5347808;26;20015;-69
2024/05/02 07:39:15;;;;;;;14.25;4.45;;;30.10;61.20;;;;;;5380875;26;20408;-69
2024/05/02 07:41:41;;;;;;;13.07;4.40;;;28.80;61.90;;;;;;5381239;26;19992;-71
2024/05/02 07:44:06;;;;;;;11.68;4.38;;;28.00;63.60;;;;;;5380184;26;20041;-69
2024/05/02 07:46:32;;;;;;;10.90;4.43;;;27.80;64.50;;;;;;5380677;26;19996;-69
2024/05/02 07:48:58;;;;;;;8.65;4.32;;;28.00;65.00;;;;;;5379328;26;20080;-72
2024/05/02 07:51:23;;;;;;;10.70;3.55;;;29.10;63.30;;;;;;5380348;26;20467;-70
2024/05/02 07:53:49;;;;;;;12.82;5.00;;;29.70;61.80;;;;;;5379965;26;20007;-69
2024/05/02 07:56:16;;;;;;;8.27;4.18;;;31.00;60.10;;;;;;5347912;26;20491;-69
2024/05/02 07:58:42;;;;;;;9.70;3.97;;;32.10;57.40;;;;;;5344587;26;20012;-70
2024/05/02 08:01:07;;;;;;;11.10;3.80;;;33.60;55.60;;;;;;5345433;26;20001;-68
2024/05/02 08:03:33;;;;;;;9.70;3.92;;;33.20;55.30;;;;;;5379260;26;20004;-70
2024/05/02 08:05:58;;;;;;;12.23;4.78;;;32.70;55.70;;;;;;5369240;26;19996;-67
2024/05/02 08:08:24;;;;;;;8.95;4.00;;;32.30;54.90;;;;;;5369084;26;20000;-67
2024/05/02 08:10:50;;;;;;;8.32;4.07;;;32.50;55.50;;;;;;5380235;26;20281;-72
2024/05/02 08:13:15;;;;;;;8.02;4.00;;;32.30;56.10;;;;;;5379513;26;19997;-69
2024/05/02 08:15:41;;;;;;;10.60;4.00;;;31.50;56.10;;;;;;5379567;26;20008;-68
2024/05/02 08:18:07;;;;;;;8.98;4.43;;;30.90;57.50;;;;;;5380855;26;20000;-75
2024/05/02 08:20:32;;;;;;;9.73;4.10;;;31.30;56.90;;;;;;5383816;26;20462;-75
2024/05/02 08:22:58;;;;;;;11.65;4.32;;;31.50;56.20;;;;;;5383633;26;19996;-73
2024/05/02 08:25:24;;;;;;;13.35;4.43;;;31.50;57.20;;;;;;5383099;26;19996;-73
2024/05/02 08:27:51;;;;;;;11.18;4.32;;;31.20;57.10;;;;;;5382578;26;20012;-72
2024/05/02 08:30:17;;;;;;;11.20;3.83;;;30.60;58.00;;;;;;5383095;26;20344;-76
2024/05/02 08:32:42;;;;;;;8.73;4.70;;;30.70;57.70;;;;;;5374193;26;19992;-76
2024/05/02 08:35:08;;;;;;;11.07;4.68;;;30.60;57.00;;;;;;5347854;26;20239;-74
2024/05/02 08:37:35;;;;;;;13.07;4.40;;;30.40;57.30;;;;;;5348402;26;20001;-74
2024/05/02 08:40:02;;;;;;;7.55;4.03;;;31.30;57.00;;;;;;5348573;26;20001;-70
2024/05/02 08:42:28;;;;;;;11.48;3.80;;;30.70;58.30;;;;;;5348057;26;20013;-74
2024/05/02 08:44:54;;;;;;;9.68;4.18;;;29.90;58.50;;;;;;5347998;26;20302;-72
2024/05/02 08:47:21;;;;;;;10.88;4.18;;;28.80;60.10;;;;;;5382033;26;20004;-72
2024/05/02 08:49:51;;;;;;;10.38;4.40;;;28.50;60.60;;;;;;5371729;26;20028;-75
2024/05/02 08:52:17;;;;;;;15.52;4.18;;;28.60;61.20;;;;;;5347833;26;20464;-75
2024/05/02 08:54:43;;;;;;;11.32;4.43;;;28.10;62.30;;;;;;5347792;26;19997;-74
2024/05/02 08:57:11;;;;;;;7.10;4.28;;;27.10;64.10;;;;;;5370595;26;20081;-75
2024/05/02 08:59:39;;;;;;;14.82;3.75;;;27.10;64.90;;;;;;5382817;26;19996;-73
2024/05/02 09:02:05;;;;;;;8.35;4.60;;;27.00;65.20;;;;;;5382807;26;20077;-71
2024/05/02 09:04:31;;;;;;;9.30;4.15;;;28.00;63.30;;;;;;5382584;26;20019;-74
2024/05/02 09:06:58;;;;;;;11.85;4.57;;;28.40;62.20;;;;;;5382771;26;20471;-75
2024/05/02 09:09:24;;;;;;;13.07;4.57;;;27.80;64.00;;;;;;5382943;26;20000;-74
2024/05/02 09:11:57;;;;;;;11.35;4.82;;;27.40;65.10;;;;;;5370314;26;20071;-72
2024/05/02 09:14:25;;;;;;;10.45;4.82;;;26.80;65.20;;;;;;5347749;26;20413;-73
2024/05/02 09:16:52;;;;;;;9.93;3.95;;;26.80;65.40;;;;;;5347592;26;20316;-73
2024/05/02 09:19:18;;;;;;;9.95;4.10;;;26.80;65.80;;;;;;5374165;26;20011;-73
2024/05/02 09:21:44;;;;;;;12.85;4.60;;;27.10;65.60;;;;;;5382558;26;20058;-72
2024/05/02 09:24:10;;;;;;;9.75;4.35;;;27.60;65.40;;;;;;5382728;26;20349;-73
2024/05/02 09:26:36;;;;;;;8.43;3.92;;;27.30;65.80;;;;;;5382509;26;19996;-73
2024/05/02 09:29:03;;;;;;;12.50;4.45;;;27.70;65.30;;;;;;5382172;26;20362;-72
2024/05/02 09:31:28;;;;;;;10.35;4.15;;;27.40;64.80;;;;;;5382282;26;20332;-70
2024/05/02 09:33:54;;;;;;;9.20;4.25;;;27.10;65.00;;;;;;5382093;26;20074;-74
2024/05/02 09:36:24;;;;;;;9.20;4.05;;;26.50;65.50;;;;;;5354012;26;20000;-73
2024/05/02 09:38:59;;;;;;;11.95;4.78;;;26.40;66.10;;;;;;5347419;26;20012;-71
2024/05/02 09:41:27;;;;;;;14.68;4.55;;;26.70;66.10;;;;;;5347787;26;20120;-75
2024/05/02 09:43:59;;;;;;;9.88;4.35;;;27.70;64.80;;;;;;5347152;26;20108;-72
2024/05/02 09:46:25;;;;;;;10.02;4.78;;;28.20;63.30;;;;;;5347607;26;20380;-75
2024/05/02 09:48:54;;;;;;;10.75;4.57;;;28.00;62.70;;;;;;5364254;26;20064;-74
2024/05/02 09:51:22;;;;;;;10.80;4.50;;;28.00;63.30;;;;;;5382430;26;20004;-76
2024/05/02 09:53:49;;;;;;;13.73;5.07;;;28.20;64.80;;;;;;5382011;26;20012;-76
2024/05/02 09:56:16;;;;;;;8.43;4.40;;;28.70;63.00;;;;;;5382301;26;20038;-73
2024/05/02 09:58:44;;;;;;;14.85;4.97;;;28.00;64.30;;;;;;5382079;26;20037;-71
2024/05/02 10:01:10;;;;;;;12.43;5.00;;;27.60;63.40;;;;;;5382209;26;20331;-74
2024/05/02 10:03:38;;;;;;;13.68;4.78;;;27.00;66.30;;;;;;5381477;26;20019;-72
2024/05/02 10:06:04;;;;;;;12.88;4.55;;;27.80;63.90;;;;;;5381843;26;20073;-73
2024/05/02 10:08:39;;;;;;;11.73;4.45;;;29.60;62.40;;;;;;5381698;26;19997;-76
2024/05/02 10:11:13;;;;;;;7.78;4.28;;;30.20;60.10;;;;;;5347600;26;20012;-73
2024/05/02 10:13:38;;;;;;;12.63;4.97;;;29.40;60.50;;;;;;5346535;26;20028;-73
2024/05/02 10:16:11;;;;;;;9.50;4.40;;;28.50;61.60;;;;;;5346782;26;20480;-73
2024/05/02 10:18:36;;;;;;;11.73;4.45;;;28.20;62.50;;;;;;5377711;26;20000;-73
2024/05/02 10:21:02;;;;;;;10.48;3.60;;;28.50;62.60;;;;;;5346962;26;20020;-73
2024/05/02 10:23:36;;;;;;;8.57;4.07;;;28.50;61.80;;;;;;5346456;26;19997;-74
2024/05/02 10:26:03;;;;;;;8.93;3.90;;;28.50;63.10;;;;;;5346771;26;20001;-74
2024/05/02 10:28:30;;;;;;;9.52;4.75;;;28.60;62.00;;;;;;5370979;26;20436;-74
2024/05/02 10:30:58;;;;;;;9.18;4.53;;;28.60;62.80;;;;;;5381546;26;20341;-71
2024/05/02 10:33:23;;;;;;;10.82;4.47;;;28.30;61.70;;;;;;5381117;26;20035;-72
2024/05/02 10:35:53;;;;;;;10.50;4.90;;;28.10;63.40;;;;;;5381151;26;20028;-72
2024/05/02 10:38:20;;;;;;;11.25;4.53;;;27.50;64.20;;;;;;5381703;26;20012;-71
2024/05/02 10:40:47;;;;;;;11.73;4.72;;;26.80;65.10;;;;;;5381653;26;20070;-74
2024/05/02 10:43:14;;;;;;;10.10;4.63;;;26.60;65.10;;;;;;5381204;26;20485;-69
2024/05/02 10:45:41;;;;;;;11.95;4.50;;;26.10;66.30;;;;;;5381620;26;20082;-73
2024/05/02 10:48:07;;;;;;;16.15;5.35;;;25.80;67.00;;;;;;5364480;26;20028;-75
2024/05/02 10:50:37;;;;;;;13.02;4.63;;;25.80;67.90;;;;;;5351983;26;20015;-72
2024/05/02 10:53:04;;;;;;;8.75;4.47;;;25.20;69.70;;;;;;5385479;26;20007;-72
2024/05/02 10:55:30;;;;;;;12.02;4.38;;;25.10;69.60;;;;;;5363780;26;20013;-72
2024/05/02 10:57:57;;;;;;;10.13;4.78;;;25.30;70.20;;;;;;5328422;26;20001;-72
2024/05/02 11:00:24;;;;;;;13.73;4.57;;;25.40;69.70;;;;;;5340278;26;20337;-73
2024/05/02 11:02:54;;;;;;;13.00;4.18;;;25.60;71.30;;;;;;5357902;26;19996;-72
2024/05/02 11:05:21;;;;;;;13.95;4.93;;;25.80;71.00;;;;;;5372705;26;20455;-77
2024/05/02 11:07:46;;;;;;;9.77;5.45;;;25.90;68.50;;;;;;5346582;26;20005;-72
2024/05/02 11:10:15;;;;;;;11.90;4.78;;;25.30;70.40;;;;;;5345847;26;20000;-74
2024/05/02 11:12:41;;;;;;;14.45;4.75;;;25.40;70.40;;;;;;5346567;26;20007;-77
2024/05/02 11:15:10;;;;;;;11.48;5.75;;;25.30;70.30;;;;;;5358944;26;20376;-74
2024/05/02 11:17:35;;;;;;;9.02;4.22;;;25.40;71.00;;;;;;5381181;26;20007;-71
2024/05/02 11:20:02;;;;;;;8.75;4.60;;;25.60;71.30;;;;;;5381348;26;20007;-76
2024/05/02 11:22:28;;;;;;;10.25;4.63;;;26.00;70.80;;;;;;5381200;26;20364;-77
2024/05/02 11:24:55;;;;;;;11.82;4.57;;;26.10;68.70;;;;;;5353037;26;20016;-76
2024/05/02 11:27:22;;;;;;;11.80;4.15;;;26.00;68.50;;;;;;5345848;26;19999;-72
2024/05/02 11:29:48;;;;;;;11.40;4.70;;;25.70;68.20;;;;;;5351500;26;20050;-72
2024/05/02 11:32:13;;;;;;;11.73;4.40;;;25.30;69.80;;;;;;5365536;26;22298;-72
2024/05/02 11:34:40;;;;;;;8.93;4.00;;;25.30;69.70;;;;;;5340967;26;20041;-73
2024/05/02 11:37:05;;;;;;;11.68;4.53;;;25.50;70.20;;;;;;5348772;26;20036;-71
2024/05/02 11:39:31;;;;;;;16.02;4.78;;;25.70;70.10;;;;;;5353975;26;19997;-72
2024/05/02 11:41:58;;;;;;;10.52;4.05;;;25.90;69.10;;;;;;5365197;26;20023;-73
2024/05/02 11:44:24;;;;;;;9.52;4.18;;;26.10;69.20;;;;;;5380876;26;20000;-74
2024/05/02 11:46:50;;;;;;;8.70;4.53;;;26.10;68.70;;;;;;5381147;26;20011;-74
2024/05/02 11:49:15;;;;;;;9.65;4.28;;;25.80;69.30;;;;;;5378148;26;20076;-74
2024/05/02 11:51:41;;;;;;;12.15;4.55;;;25.70;68.60;;;;;;5346016;26;19996;-72
2024/05/02 11:54:08;;;;;;;8.60;4.40;;;25.30;69.90;;;;;;5347961;26;20078;-72
2024/05/02 11:56:33;;;;;;;10.30;4.38;;;25.50;70.30;;;;;;5380766;26;20008;-72
2024/05/02 11:58:59;;;;;;;9.57;4.47;;;25.60;70.10;;;;;;5380951;26;20000;-76
2024/05/02 12:01:27;;;;;;;9.85;4.75;;;25.50;69.80;;;;;;5369542;26;19997;-72
2024/05/02 12:03:53;;;;;;;7.32;4.22;;;25.30;70.40;;;;;;5345548;26;20001;-75
2024/05/02 12:06:19;;;;;;;8.23;4.85;;;25.10;70.90;;;;;;5346092;26;20012;-72
2024/05/02 12:08:44;;;;;;;10.63;4.38;;;24.90;72.00;;;;;;5351417;26;20471;-72
2024/05/02 12:11:10;;;;;;;11.68;4.93;;;24.70;72.10;;;;;;5368787;26;19996;-75
2024/05/02 12:13:37;;;;;;;10.15;4.90;;;24.70;71.60;;;;;;5380008;26;20008;-72
2024/05/02 12:16:03;;;;;;;12.90;4.72;;;24.40;73.20;;;;;;5380334;26;20004;-74
2024/05/02 12:18:29;;;;;;;12.02;5.28;;;24.10;74.10;;;;;;5380582;26;20075;-72
2024/05/02 12:20:55;;;;;;;10.70;4.25;;;24.00;74.50;;;;;;5380371;26;20004;-74
2024/05/02 12:23:20;;;;;;;13.02;4.15;;;24.00;73.80;;;;;;5380314;26;19996;-76
2024/05/02 12:25:46;;;;;;;11.20;4.40;;;24.10;73.50;;;;;;5371617;26;20001;-72
2024/05/02 12:28:12;;;;;;;10.02;5.15;;;24.00;74.70;;;;;;5345317;26;20063;-74
2024/05/02 12:30:38;;;;;;;10.25;4.50;;;24.10;74.20;;;;;;5344914;26;20004;-72
2024/05/02 12:33:03;;;;;;;9.57;4.18;;;24.00;74.10;;;;;;5345232;26;20009;-74
2024/05/02 12:35:29;;;;;;;7.40;4.15;;;23.90;73.80;;;;;;5365805;26;20015;-75
2024/05/02 12:37:55;;;;;;;13.98;4.30;;;24.00;73.70;;;;;;5380157;26;20037;-76